Time;durP1;ratioP1;P1;durP2;ratioP2;P2;SDS_P1;SDS_P2;PMS_P1;PMS_P2;Temp;Humidity;BMP_temperature;BMP_pressure;BME280_temperature;BME280_humidity;BME280_pressure;Samples;Min_cycle;Max_cycle;Signal;HPM_P1;HPM_P2
2021/03/18 00:02:05;;;;;;;12.68;8.98;;;1.10;32.90;;;;;;4942275;29;20421;-75
2021/03/18 00:04:32;;;;;;;13.90;8.43;;;1.10;29.70;;;;;;4943713;29;20489;-74
2021/03/18 00:06:59;;;;;;;13.43;8.55;;;1.20;30.80;;;;;;4942565;29;20043;-74
2021/03/18 00:09:26;;;;;;;14.10;9.15;;;1.20;29.80;;;;;;4939722;29;20040;-74
2021/03/18 00:11:53;;;;;;;15.35;8.00;;;1.20;29.80;;;;;;4943107;29;20517;-73
2021/03/18 00:14:22;;;;;;;14.60;7.82;;;1.20;29.00;;;;;;4940204;29;20048;-74
2021/03/18 00:16:50;;;;;;;11.25;7.07;;;1.10;27.30;;;;;;4946227;29;20055;-75
2021/03/18 00:19:17;;;;;;;10.82;7.70;;;1.20;26.70;;;;;;4941605;29;20051;-75
2021/03/18 00:21:48;;;;;;;12.23;7.68;;;1.10;27.30;;;;;;4944685;29;20226;-74
2021/03/18 00:24:18;;;;;;;9.75;6.72;;;1.10;26.00;;;;;;4937853;29;20050;-75
2021/03/18 00:26:45;;;;;;;9.85;6.40;;;1.20;27.10;;;;;;4945923;29;20494;-73
2021/03/18 00:29:12;;;;;;;9.07;6.38;;;1.10;25.10;;;;;;4942772;29;20052;-73
2021/03/18 00:31:53;;;;;;;11.23;6.70;;;1.20;25.40;;;;;;4942647;29;20060;-76
2021/03/18 00:34:21;;;;;;;10.52;6.85;;;1.20;26.20;;;;;;4944317;29;20098;-75
2021/03/18 00:36:49;;;;;;;11.07;6.15;;;1.20;26.60;;;;;;4947353;29;20059;-75
2021/03/18 00:39:16;;;;;;;12.05;7.00;;;1.20;25.60;;;;;;4941027;29;20078;-75
2021/03/18 00:41:42;;;;;;;10.50;6.35;;;1.20;25.70;;;;;;4945228;29;20162;-75
2021/03/18 00:44:09;;;;;;;10.35;6.63;;;1.20;25.70;;;;;;4943505;29;20054;-75
2021/03/18 00:46:36;;;;;;;10.13;6.38;;;1.10;24.60;;;;;;4950869;29;20085;-74
2021/03/18 00:49:05;;;;;;;7.88;6.05;;;1.20;24.20;;;;;;4945576;29;20054;-75
2021/03/18 00:51:32;;;;;;;10.63;5.65;;;1.20;23.90;;;;;;4939147;29;20506;-75
2021/03/18 00:54:01;;;;;;;8.45;5.65;;;1.20;22.70;;;;;;4945233;29;20077;-75
2021/03/18 00:56:29;;;;;;;8.88;5.20;;;1.20;24.00;;;;;;4943551;29;20540;-75
2021/03/18 00:58:57;;;;;;;7.35;5.03;;;1.20;23.20;;;;;;4946291;29;20094;-76
2021/03/18 01:01:26;;;;;;;7.80;4.68;;;1.10;23.40;;;;;;4944405;29;20051;-75
2021/03/18 01:03:54;;;;;;;7.93;4.95;;;1.10;23.70;;;;;;4922638;29;20055;-76
2021/03/18 01:06:23;;;;;;;9.73;5.03;;;1.20;22.70;;;;;;4943864;29;20134;-75
2021/03/18 01:08:51;;;;;;;7.57;4.68;;;1.20;22.90;;;;;;4942755;29;20139;-76
2021/03/18 01:11:22;;;;;;;6.50;4.60;;;1.20;21.90;;;;;;4945128;28;20055;-75
2021/03/18 01:13:54;;;;;;;9.07;4.70;;;1.20;21.60;;;;;;4938041;29;20418;-75
2021/03/18 01:16:22;;;;;;;8.80;5.03;;;1.20;21.90;;;;;;4940257;29;20462;-75
2021/03/18 01:18:52;;;;;;;7.95;4.72;;;1.10;22.40;;;;;;4941011;29;20111;-75
2021/03/18 01:21:22;;;;;;;6.80;4.35;;;1.20;22.90;;;;;;4944406;29;20054;-75
2021/03/18 01:23:49;;;;;;;5.72;4.38;;;1.20;22.60;;;;;;4934375;29;20130;-76
2021/03/18 01:26:17;;;;;;;6.47;4.00;;;1.10;20.60;;;;;;4949209;28;20111;-76
2021/03/18 01:28:45;;;;;;;10.93;4.72;;;1.10;20.60;;;;;;4941368;29;20099;-74
2021/03/18 01:31:14;;;;;;;7.95;4.25;;;1.20;22.10;;;;;;4945680;29;20086;-75
2021/03/18 01:33:42;;;;;;;6.85;4.25;;;1.20;20.60;;;;;;4941475;29;20070;-75
2021/03/18 01:36:12;;;;;;;6.82;4.25;;;1.20;20.60;;;;;;4947861;29;20047;-75
2021/03/18 01:38:40;;;;;;;9.10;4.72;;;1.10;17.90;;;;;;4951049;29;20058;-77
2021/03/18 01:41:08;;;;;;;7.72;3.58;;;1.10;20.60;;;;;;4933515;29;20059;-76
2021/03/18 01:43:35;;;;;;;7.90;4.00;;;1.10;20.60;;;;;;4941718;29;20055;-76
2021/03/18 01:46:03;;;;;;;8.77;5.28;;;1.10;21.70;;;;;;4942464;29;20050;-74
2021/03/18 01:48:31;;;;;;;6.25;4.13;;;1.10;22.20;;;;;;4940347;29;20457;-75
2021/03/18 01:50:59;;;;;;;6.85;4.28;;;1.00;20.50;;;;;;4938340;29;20056;-75
2021/03/18 01:53:26;;;;;;;6.25;4.10;;;1.00;22.10;;;;;;4938742;29;20086;-74
2021/03/18 01:55:56;;;;;;;9.10;4.68;;;1.10;20.30;;;;;;4940673;29;20043;-74
2021/03/18 01:58:24;;;;;;;8.60;4.80;;;1.00;20.50;;;;;;4942160;29;20055;-74
2021/03/18 02:00:54;;;;;;;6.55;4.18;;;1.00;20.90;;;;;;4939445;29;20469;-75
2021/03/18 02:03:22;;;;;;;13.27;4.55;;;1.00;21.30;;;;;;4936967;29;20525;-74
2021/03/18 02:05:52;;;;;;;11.35;4.80;;;1.00;21.60;;;;;;4941937;29;20043;-75
2021/03/18 02:08:19;;;;;;;5.18;3.78;;;1.00;20.50;;;;;;4943170;29;20078;-74
2021/03/18 02:10:46;;;;;;;7.50;3.90;;;1.10;17.90;;;;;;4937940;29;20062;-74
2021/03/18 02:13:16;;;;;;;9.65;4.38;;;1.10;18.80;;;;;;4940683;29;20050;-75
2021/03/18 02:15:46;;;;;;;9.07;4.05;;;1.10;19.80;;;;;;4943609;29;20091;-74
2021/03/18 02:18:19;;;;;;;7.80;4.63;;;1.00;19.80;;;;;;4941346;29;20055;-74
2021/03/18 02:21:39;;;;;;;8.05;4.28;;;1.00;20.50;;;;;;4942265;29;20055;-74
2021/03/18 02:24:39;;;;;;;7.38;4.60;;;1.10;20.20;;;;;;4941232;29;20413;-75
2021/03/18 02:27:45;;;;;;;6.40;4.22;;;1.00;19.50;;;;;;4930795;29;20058;-74
2021/03/18 02:30:39;;;;;;;6.00;3.65;;;1.00;19.10;;;;;;4914957;29;20075;-75
2021/03/18 02:33:47;;;;;;;8.43;4.47;;;1.10;19.60;;;;;;4940322;29;20043;-74
2021/03/18 02:36:20;;;;;;;12.10;4.47;;;1.10;20.60;;;;;;4941826;29;20129;-73
2021/03/18 02:38:53;;;;;;;8.82;4.60;;;1.10;20.50;;;;;;4942603;29;20062;-74
2021/03/18 02:41:26;;;;;;;5.43;3.90;;;1.20;20.10;;;;;;4940029;29;20047;-74
2021/03/18 02:44:00;;;;;;;9.93;4.53;;;1.20;20.60;;;;;;4933836;29;20082;-75
2021/03/18 02:46:28;;;;;;;8.07;4.47;;;1.20;20.60;;;;;;4945681;29;20058;-74
2021/03/18 02:49:01;;;;;;;8.23;4.45;;;1.20;20.60;;;;;;4938078;29;20048;-74
2021/03/18 02:51:32;;;;;;;6.40;4.10;;;1.20;19.60;;;;;;4937406;29;20101;-74
2021/03/18 02:54:05;;;;;;;7.07;4.72;;;1.30;20.70;;;;;;4937208;29;20121;-74
2021/03/18 02:56:33;;;;;;;10.77;4.53;;;1.20;19.50;;;;;;4940648;29;20059;-75
2021/03/18 02:59:03;;;;;;;6.65;4.25;;;1.10;20.10;;;;;;4939890;29;20047;-74
2021/03/18 03:01:31;;;;;;;7.72;4.70;;;1.10;21.20;;;;;;4939122;29;20051;-73
2021/03/18 03:04:01;;;;;;;8.55;4.78;;;1.10;22.40;;;;;;4930793;29;20066;-73
2021/03/18 03:06:31;;;;;;;8.25;4.70;;;1.20;21.90;;;;;;4940232;29;20102;-74
2021/03/18 03:09:03;;;;;;;8.23;4.55;;;1.10;22.10;;;;;;4940207;29;20051;-74
2021/03/18 03:11:32;;;;;;;11.45;4.55;;;1.00;21.40;;;;;;4940015;29;20134;-74
2021/03/18 03:14:01;;;;;;;5.80;4.63;;;1.00;22.40;;;;;;4939183;29;20047;-73
2021/03/18 03:16:29;;;;;;;10.10;4.90;;;1.00;22.20;;;;;;4946787;29;20047;-73
2021/03/18 03:18:58;;;;;;;7.20;4.78;;;1.00;23.20;;;;;;4940894;29;20445;-72
2021/03/18 03:21:26;;;;;;;9.38;4.65;;;1.00;24.00;;;;;;4943103;29;20047;-73
2021/03/18 03:23:54;;;;;;;9.38;5.03;;;1.00;24.50;;;;;;4940506;29;20162;-73
2021/03/18 03:26:23;;;;;;;7.72;5.10;;;1.00;25.00;;;;;;4942685;29;20098;-73
2021/03/18 03:28:51;;;;;;;9.32;4.70;;;1.00;24.90;;;;;;4944250;29;20177;-73
2021/03/18 03:31:18;;;;;;;8.15;5.18;;;1.00;25.30;;;;;;4944929;29;20058;-74
2021/03/18 03:34:00;;;;;;;10.15;5.90;;;1.00;26.70;;;;;;4941188;29;20063;-73
2021/03/18 03:36:27;;;;;;;9.52;5.95;;;0.90;27.10;;;;;;4944338;28;20055;-74
2021/03/18 03:38:55;;;;;;;10.93;5.63;;;1.00;27.20;;;;;;4943680;29;20047;-74
2021/03/18 03:41:22;;;;;;;11.82;6.03;;;0.80;27.10;;;;;;4939905;29;20398;-73
2021/03/18 03:43:49;;;;;;;14.45;7.32;;;0.90;29.10;;;;;;4942342;29;20049;-75
2021/03/18 03:46:16;;;;;;;9.13;6.13;;;1.00;29.70;;;;;;4942636;29;20050;-75
2021/03/18 03:48:44;;;;;;;11.20;6.43;;;1.00;29.60;;;;;;4944789;29;20409;-75
2021/03/18 03:51:11;;;;;;;9.63;6.43;;;1.00;29.70;;;;;;4937011;29;20043;-74
2021/03/18 03:53:44;;;;;;;13.52;6.53;;;1.00;29.30;;;;;;4935947;29;20656;-74
2021/03/18 03:56:20;;;;;;;16.55;6.97;;;1.00;29.60;;;;;;4949731;29;20051;-73
2021/03/18 03:58:51;;;;;;;13.52;6.90;;;0.90;29.10;;;;;;4943152;29;20502;-76
2021/03/18 04:01:26;;;;;;;9.80;5.68;;;0.90;29.40;;;;;;4933393;29;20060;-74
2021/03/18 04:04:03;;;;;;;10.55;6.20;;;0.90;27.10;;;;;;4939264;29;20056;-76
2021/03/18 04:06:36;;;;;;;8.60;5.60;;;1.00;26.70;;;;;;4944933;29;20070;-74
2021/03/18 04:09:05;;;;;;;8.73;5.28;;;0.90;25.60;;;;;;4943392;29;20079;-77
2021/03/18 04:11:35;;;;;;;9.60;5.40;;;0.90;27.10;;;;;;4946442;29;20051;-74
2021/03/18 04:14:03;;;;;;;10.13;5.80;;;0.90;25.50;;;;;;4940336;29;20055;-74
2021/03/18 04:16:30;;;;;;;12.75;5.43;;;1.00;27.20;;;;;;4948618;29;20054;-75
2021/03/18 04:18:58;;;;;;;10.32;5.70;;;1.00;27.20;;;;;;4942704;29;20051;-74
2021/03/18 04:21:26;;;;;;;9.52;5.68;;;1.00;27.20;;;;;;4942185;29;20055;-75
2021/03/18 04:23:54;;;;;;;11.20;5.15;;;1.00;25.10;;;;;;4940759;29;20417;-76
2021/03/18 04:26:22;;;;;;;6.97;4.88;;;1.00;25.20;;;;;;4944530;29;20048;-77
2021/03/18 04:28:50;;;;;;;9.30;5.75;;;1.00;25.50;;;;;;4939801;29;20055;-74
2021/03/18 04:31:17;;;;;;;8.32;5.22;;;1.00;25.40;;;;;;4943004;29;20055;-74
2021/03/18 04:33:44;;;;;;;8.40;5.18;;;1.00;24.20;;;;;;4939150;29;20055;-77
2021/03/18 04:36:12;;;;;;;8.65;5.30;;;1.10;22.80;;;;;;4943942;29;20655;-75
2021/03/18 04:38:39;;;;;;;10.85;5.82;;;1.10;24.70;;;;;;4941590;29;20142;-75
2021/03/18 04:41:07;;;;;;;9.90;5.85;;;1.10;23.80;;;;;;4938878;29;20059;-75
2021/03/18 04:43:34;;;;;;;8.65;5.50;;;1.00;22.80;;;;;;4943205;29;20044;-77
2021/03/18 04:46:07;;;;;;;8.18;5.43;;;1.00;22.20;;;;;;4951305;29;20050;-74
2021/03/18 04:48:37;;;;;;;10.80;5.63;;;1.00;21.40;;;;;;4937265;29;20661;-74
2021/03/18 04:51:06;;;;;;;7.97;5.68;;;1.10;20.70;;;;;;4939275;29;20058;-75
2021/03/18 04:53:33;;;;;;;7.22;5.05;;;1.10;21.30;;;;;;4940046;29;20554;-75
2021/03/18 04:56:00;;;;;;;6.55;4.28;;;1.10;22.30;;;;;;4936258;29;20077;-74
2021/03/18 04:58:28;;;;;;;9.00;4.55;;;1.10;22.00;;;;;;4945286;29;20497;-76
2021/03/18 05:00:55;;;;;;;8.55;4.80;;;1.10;22.20;;;;;;4944992;29;20432;-74
2021/03/18 05:03:23;;;;;;;7.65;4.65;;;1.10;22.20;;;;;;4936107;29;20051;-76
2021/03/18 05:05:52;;;;;;;9.18;5.00;;;1.10;22.60;;;;;;4946466;29;20102;-76
2021/03/18 05:08:21;;;;;;;8.77;4.72;;;1.10;21.10;;;;;;4946476;29;20130;-75
2021/03/18 05:10:49;;;;;;;10.10;4.70;;;1.00;21.30;;;;;;4940570;29;20417;-75
2021/03/18 05:13:17;;;;;;;8.13;4.90;;;1.10;21.50;;;;;;4940856;29;20406;-75
2021/03/18 05:15:44;;;;;;;9.57;4.88;;;1.10;21.70;;;;;;4939782;29;20077;-75
2021/03/18 05:18:14;;;;;;;11.52;5.28;;;1.00;22.20;;;;;;4944350;29;20047;-75
2021/03/18 05:20:45;;;;;;;8.52;5.00;;;1.00;23.10;;;;;;4943284;29;20051;-74
2021/03/18 05:23:14;;;;;;;10.45;5.13;;;1.00;23.30;;;;;;4936281;29;20082;-74
2021/03/18 05:25:42;;;;;;;9.25;5.15;;;1.00;23.90;;;;;;4942796;29;20070;-75
2021/03/18 05:28:09;;;;;;;8.63;5.03;;;1.10;23.60;;;;;;4939873;29;20057;-75
2021/03/18 05:30:37;;;;;;;9.25;5.38;;;1.10;23.10;;;;;;4941565;28;20054;-75
2021/03/18 05:33:05;;;;;;;12.02;5.60;;;1.10;23.60;;;;;;4941249;29;20056;-75
2021/03/18 05:35:36;;;;;;;10.80;5.82;;;1.10;23.70;;;;;;4943951;28;20151;-75
2021/03/18 05:38:05;;;;;;;12.32;5.88;;;1.10;23.50;;;;;;4936670;29;20070;-75
2021/03/18 05:40:33;;;;;;;10.43;6.10;;;1.20;25.20;;;;;;4944118;29;20477;-75
2021/03/18 05:43:00;;;;;;;11.27;5.80;;;1.10;25.90;;;;;;4942113;29;20449;-74
2021/03/18 05:45:28;;;;;;;10.93;6.03;;;1.10;25.60;;;;;;4944416;29;20043;-74
2021/03/18 05:47:56;;;;;;;12.88;6.00;;;1.10;25.60;;;;;;4939272;29;20070;-75
2021/03/18 05:50:24;;;;;;;11.70;6.00;;;1.10;25.10;;;;;;4944682;29;20051;-76
2021/03/18 05:52:52;;;;;;;11.60;5.95;;;1.10;26.70;;;;;;4940454;29;20668;-75
2021/03/18 05:55:22;;;;;;;12.50;6.50;;;1.10;27.20;;;;;;4945172;29;20050;-75
2021/03/18 05:57:50;;;;;;;14.95;6.43;;;1.20;27.30;;;;;;4940898;29;20055;-75
2021/03/18 06:00:19;;;;;;;9.63;6.07;;;1.30;27.40;;;;;;4942986;29;20139;-74
2021/03/18 06:02:50;;;;;;;10.10;7.03;;;1.20;26.10;;;;;;4935315;29;20047;-74
2021/03/18 06:05:18;;;;;;;10.65;6.10;;;1.20;25.80;;;;;;4945934;29;20047;-73
2021/03/18 06:07:47;;;;;;;8.65;5.70;;;1.20;25.60;;;;;;4939326;29;20106;-74
2021/03/18 06:10:17;;;;;;;9.18;5.90;;;1.20;25.00;;;;;;4941548;29;20073;-73
2021/03/18 06:12:46;;;;;;;13.25;6.32;;;1.30;26.40;;;;;;4935159;29;20162;-74
2021/03/18 06:15:15;;;;;;;11.73;6.20;;;1.40;26.20;;;;;;4937855;29;20168;-74
2021/03/18 06:17:42;;;;;;;9.38;5.50;;;1.50;24.50;;;;;;4942488;29;20047;-74
2021/03/18 06:20:11;;;;;;;12.45;5.45;;;1.50;23.70;;;;;;4943462;29;20069;-74
2021/03/18 06:22:41;;;;;;;9.88;5.80;;;1.60;23.30;;;;;;4938709;29;20081;-74
2021/03/18 06:25:23;;;;;;;9.50;5.88;;;1.50;20.80;;;;;;4942249;29;20050;-75
2021/03/18 06:28:11;;;;;;;9.43;6.30;;;1.60;21.80;;;;;;4941435;29;20039;-75
2021/03/18 06:30:39;;;;;;;12.77;6.30;;;1.80;22.30;;;;;;4942986;29;20061;-74
2021/03/18 06:33:21;;;;;;;11.85;5.90;;;1.80;21.70;;;;;;4936814;29;20082;-75
2021/03/18 06:35:48;;;;;;;10.30;5.50;;;1.80;21.00;;;;;;4944999;29;20079;-74
2021/03/18 06:38:15;;;;;;;11.52;5.53;;;1.60;20.90;;;;;;4941081;29;20661;-74
2021/03/18 06:40:43;;;;;;;10.90;5.47;;;1.60;22.00;;;;;;4943821;29;20737;-74
2021/03/18 06:43:11;;;;;;;17.60;6.22;;;1.60;21.30;;;;;;4941081;29;20051;-74
2021/03/18 06:45:40;;;;;;;10.30;5.78;;;1.70;22.80;;;;;;4941491;29;20052;-74
2021/03/18 06:48:09;;;;;;;7.93;5.93;;;1.60;20.90;;;;;;4941370;28;20103;-75
2021/03/18 06:50:38;;;;;;;10.90;5.93;;;1.50;23.20;;;;;;4936746;29;20450;-74
2021/03/18 06:53:18;;;;;;;10.27;6.00;;;1.80;23.40;;;;;;4940656;29;20069;-74
2021/03/18 06:55:45;;;;;;;13.98;5.38;;;1.80;20.70;;;;;;4942182;29;20454;-74
2021/03/18 06:58:20;;;;;;;14.70;6.70;;;1.90;19.90;;;;;;4947891;29;20143;-75
2021/03/18 07:00:49;;;;;;;11.35;6.57;;;1.90;20.00;;;;;;4940311;29;20053;-74
2021/03/18 07:03:27;;;;;;;11.95;6.00;;;2.10;21.00;;;;;;4933994;29;20058;-75
2021/03/18 07:05:55;;;;;;;10.10;5.35;;;2.20;19.90;;;;;;4946902;29;20051;-74
2021/03/18 07:08:27;;;;;;;13.63;5.50;;;2.00;18.20;;;;;;4942099;29;20047;-74
2021/03/18 07:10:55;;;;;;;8.27;5.93;;;2.10;19.60;;;;;;4940946;29;20063;-75
2021/03/18 07:13:26;;;;;;;9.13;6.55;;;2.00;18.00;;;;;;4937994;29;20048;-74
2021/03/18 07:15:54;;;;;;;8.98;6.03;;;2.40;18.70;;;;;;4940620;29;20134;-74
2021/03/18 07:18:22;;;;;;;10.60;6.25;;;2.30;17.80;;;;;;4945397;29;20162;-74
2021/03/18 07:21:01;;;;;;;11.27;6.82;;;2.10;15.30;;;;;;4938898;29;20493;-74
2021/03/18 07:23:39;;;;;;;9.07;5.72;;;2.20;18.40;;;;;;4938225;29;20047;-74
2021/03/18 07:26:18;;;;;;;11.27;5.72;;;2.20;15.00;;;;;;4942632;29;20051;-74
2021/03/18 07:28:48;;;;;;;11.38;5.65;;;1.90;16.00;;;;;;4943251;29;20058;-75
2021/03/18 07:31:16;;;;;;;20.15;6.30;;;2.00;17.10;;;;;;4946199;29;20131;-73
2021/03/18 07:33:44;;;;;;;12.57;6.43;;;2.10;17.50;;;;;;4941546;29;20058;-75
2021/03/18 07:36:12;;;;;;;10.55;5.90;;;2.40;17.50;;;;;;4940307;29;20051;-75
2021/03/18 07:38:40;;;;;;;11.40;6.55;;;2.30;16.10;;;;;;4942077;29;20058;-74
2021/03/18 07:41:12;;;;;;;8.20;5.90;;;2.40;16.60;;;;;;4942829;29;20520;-75
2021/03/18 07:43:42;;;;;;;14.40;6.70;;;2.20;16.40;;;;;;4945098;29;20238;-74
2021/03/18 07:46:13;;;;;;;14.70;7.38;;;2.30;16.50;;;;;;4944307;29;20654;-74
2021/03/18 07:48:42;;;;;;;16.10;7.32;;;2.60;16.00;;;;;;4945936;29;20058;-74
2021/03/18 07:51:10;;;;;;;13.77;7.15;;;2.80;14.50;;;;;;4942303;28;20051;-75
2021/03/18 07:53:38;;;;;;;15.88;5.93;;;2.60;11.10;;;;;;4945095;29;20381;-75
2021/03/18 07:56:12;;;;;;;10.52;5.72;;;3.00;12.00;;;;;;4941744;29;20058;-75
2021/03/18 07:58:44;;;;;;;12.02;5.63;;;3.00;8.30;;;;;;4945466;28;20047;-75
2021/03/18 08:01:43;;;;;;;10.98;5.72;;;3.30;7.90;;;;;;4946692;29;20047;-74
2021/03/18 08:04:13;;;;;;;9.40;5.60;;;3.20;5.80;;;;;;4939566;28;20054;-73
2021/03/18 08:06:54;;;;;;;9.80;5.03;;;3.40;6.10;;;;;;4936509;29;20047;-73
2021/03/18 08:09:50;;;;;;;13.60;6.28;;;3.10;4.20;;;;;;4948965;29;20078;-74
2021/03/18 08:12:40;;;;;;;11.20;5.18;;;3.40;5.70;;;;;;4934208;29;20047;-76
2021/03/18 08:15:26;;;;;;;9.75;4.93;;;3.40;3.50;;;;;;4943849;29;20127;-75
2021/03/18 08:17:54;;;;;;;8.85;4.88;;;3.80;2.80;;;;;;4946147;29;20394;-75
2021/03/18 08:21:03;;;;;;;9.05;4.80;;;3.70;2.00;;;;;;4942734;28;20126;-74
2021/03/18 08:23:45;;;;;;;11.05;4.15;;;4.10;1.50;;;;;;4947138;29;20060;-74
2021/03/18 08:26:19;;;;;;;10.30;4.80;;;3.70;1.00;;;;;;4946604;29;20040;-74
2021/03/18 08:28:48;;;;;;;8.40;4.80;;;3.90;1.70;;;;;;4944409;29;20089;-76
2021/03/18 08:31:16;;;;;;;9.73;5.53;;;4.10;1.00;;;;;;4945366;29;20097;-76
2021/03/18 08:33:47;;;;;;;9.27;4.53;;;4.10;1.00;;;;;;4945082;29;20876;-75
2021/03/18 08:36:25;;;;;;;10.27;4.45;;;3.70;1.00;;;;;;4942727;29;20054;-77
2021/03/18 08:38:56;;;;;;;8.40;4.85;;;4.10;1.00;;;;;;4952983;29;20572;-74
2021/03/18 08:41:34;;;;;;;7.63;4.60;;;4.20;1.00;;;;;;4950478;28;20082;-74
2021/03/18 08:44:19;;;;;;;7.97;4.15;;;4.30;1.00;;;;;;4945066;29;20054;-74
2021/03/18 08:46:53;;;;;;;6.88;4.40;;;4.20;1.00;;;;;;4942074;29;20145;-77
2021/03/18 08:49:27;;;;;;;6.78;4.60;;;3.70;1.00;;;;;;4943194;29;20083;-75
2021/03/18 08:51:57;;;;;;;8.48;5.28;;;4.20;1.00;;;;;;4943505;29;20079;-75
2021/03/18 08:54:54;;;;;;;25.58;11.95;;;4.50;1.00;;;;;;4944963;29;20123;-75
2021/03/18 08:57:29;;;;;;;16.30;8.50;;;4.40;1.00;;;;;;4945639;29;20047;-75
2021/03/18 08:59:59;;;;;;;28.10;14.35;;;4.30;1.10;;;;;;4945470;29;20062;-76
2021/03/18 09:02:32;;;;;;;10.20;6.10;;;4.30;1.20;;;;;;4943847;29;20532;-76
2021/03/18 09:05:01;;;;;;;10.25;6.05;;;4.10;2.70;;;;;;4941641;29;20043;-74
2021/03/18 09:07:31;;;;;;;11.57;6.22;;;4.10;3.10;;;;;;4942538;29;20056;-76
2021/03/18 09:10:05;;;;;;;12.65;6.05;;;4.10;3.70;;;;;;4934638;29;20058;-75
2021/03/18 09:12:39;;;;;;;12.20;6.50;;;4.10;2.20;;;;;;4939078;29;20085;-73
2021/03/18 09:15:19;;;;;;;10.05;5.90;;;4.00;1.70;;;;;;4943149;29;20054;-74
2021/03/18 09:17:48;;;;;;;9.75;6.75;;;3.90;3.50;;;;;;4940530;29;20052;-75
2021/03/18 09:20:18;;;;;;;9.70;6.50;;;3.80;2.70;;;;;;4942715;29;20056;-74
2021/03/18 09:22:46;;;;;;;14.90;6.60;;;4.50;1.60;;;;;;4947576;29;20051;-74
2021/03/18 09:25:14;;;;;;;16.88;5.90;;;4.60;1.00;;;;;;4943166;29;20044;-75
2021/03/18 09:27:43;;;;;;;13.63;6.05;;;4.70;1.00;;;;;;4946521;28;20062;-77
2021/03/18 09:30:29;;;;;;;11.93;5.57;;;4.80;1.00;;;;;;4939977;29;20066;-74
2021/03/18 09:32:57;;;;;;;9.23;6.03;;;4.50;1.00;;;;;;4942824;29;20061;-73
2021/03/18 09:35:26;;;;;;;13.23;6.35;;;4.00;1.40;;;;;;4943729;29;20053;-73
2021/03/18 09:37:57;;;;;;;11.77;6.10;;;4.10;2.90;;;;;;4931175;29;20066;-76
2021/03/18 09:40:33;;;;;;;13.40;6.30;;;4.20;1.00;;;;;;4943844;29;20052;-76
2021/03/18 09:43:01;;;;;;;13.90;6.93;;;4.10;1.00;;;;;;4941405;29;20053;-75
2021/03/18 09:45:28;;;;;;;12.27;6.35;;;4.40;1.20;;;;;;4942090;29;20088;-74
2021/03/18 09:47:56;;;;;;;13.32;6.13;;;5.00;1.00;;;;;;4939181;29;20437;-72
2021/03/18 09:50:25;;;;;;;14.13;6.22;;;5.30;1.00;;;;;;4941841;29;20133;-72
2021/03/18 09:53:07;;;;;;;11.10;4.78;;;4.50;1.00;;;;;;4942130;29;20051;-73
2021/03/18 09:55:34;;;;;;;12.15;5.70;;;4.70;1.00;;;;;;4942345;29;20043;-73
2021/03/18 09:58:13;;;;;;;9.88;6.00;;;4.90;1.00;;;;;;4936125;29;20458;-74
2021/03/18 10:00:41;;;;;;;9.80;5.43;;;4.60;1.00;;;;;;4945410;29;20047;-72
2021/03/18 10:03:11;;;;;;;7.80;4.30;;;4.50;1.00;;;;;;4943163;29;20174;-73
2021/03/18 10:05:38;;;;;;;10.05;4.55;;;4.40;1.00;;;;;;4942940;29;20051;-74
2021/03/18 10:08:06;;;;;;;8.82;4.90;;;4.50;1.00;;;;;;4940191;29;20055;-74
2021/03/18 10:10:34;;;;;;;7.43;4.65;;;4.80;1.00;;;;;;4936407;29;20497;-74
2021/03/18 10:13:02;;;;;;;9.95;4.63;;;4.90;1.00;;;;;;4940286;29;20084;-72
2021/03/18 10:15:29;;;;;;;8.27;4.35;;;5.50;1.00;;;;;;4942599;29;20650;-74
2021/03/18 10:17:57;;;;;;;12.25;5.15;;;5.90;1.00;;;;;;4936416;29;20150;-74
2021/03/18 10:20:31;;;;;;;10.25;4.65;;;6.10;1.00;;;;;;4935439;29;20059;-75
2021/03/18 10:23:01;;;;;;;9.60;4.60;;;5.80;1.00;;;;;;4934011;28;20059;-75
2021/03/18 10:25:31;;;;;;;10.52;4.90;;;6.20;1.00;;;;;;4936825;29;20043;-75
2021/03/18 10:28:04;;;;;;;8.40;4.68;;;6.50;1.00;;;;;;4934515;29;20560;-74
2021/03/18 10:30:33;;;;;;;8.05;4.78;;;7.10;1.00;;;;;;4938147;29;20105;-75
2021/03/18 10:33:06;;;;;;;8.57;5.03;;;7.00;1.00;;;;;;4940992;29;20052;-74
2021/03/18 10:35:36;;;;;;;4.95;4.03;;;6.80;1.00;;;;;;4935601;29;20562;-74
2021/03/18 10:38:03;;;;;;;8.10;4.22;;;6.40;1.00;;;;;;4930708;29;20150;-74
2021/03/18 10:40:39;;;;;;;5.78;4.30;;;6.50;1.00;;;;;;4938832;29;20052;-74
2021/03/18 10:43:19;;;;;;;7.30;4.47;;;6.10;1.00;;;;;;4936030;29;20429;-73
2021/03/18 10:45:47;;;;;;;6.90;4.30;;;6.00;1.00;;;;;;4932721;29;20059;-73
2021/03/18 10:48:20;;;;;;;8.60;4.63;;;6.10;1.00;;;;;;4930192;29;20059;-73
2021/03/18 10:50:49;;;;;;;6.28;4.88;;;6.10;1.00;;;;;;4935794;29;20054;-74
2021/03/18 10:53:16;;;;;;;5.65;4.03;;;6.30;1.00;;;;;;4935023;29;20105;-75
2021/03/18 10:55:57;;;;;;;5.28;3.85;;;6.00;1.00;;;;;;4938222;29;20062;-75
2021/03/18 10:58:26;;;;;;;6.28;4.68;;;6.40;1.00;;;;;;4930290;29;20312;-75
2021/03/18 11:00:58;;;;;;;8.80;5.43;;;6.20;1.00;;;;;;4936111;29;20075;-75
2021/03/18 11:03:28;;;;;;;8.45;4.72;;;6.00;1.00;;;;;;4936795;29;20147;-74
2021/03/18 11:05:57;;;;;;;8.65;4.55;;;5.70;1.00;;;;;;4936111;29;20043;-75
2021/03/18 11:08:29;;;;;;;6.40;4.15;;;5.50;1.00;;;;;;4929866;29;20155;-73
2021/03/18 11:10:59;;;;;;;5.22;3.75;;;5.40;1.00;;;;;;4938165;29;20054;-72
2021/03/18 11:13:29;;;;;;;7.28;4.88;;;5.10;1.00;;;;;;4932777;29;20059;-72
2021/03/18 11:16:01;;;;;;;8.57;4.82;;;5.40;1.00;;;;;;4934676;29;20071;-74
2021/03/18 11:18:31;;;;;;;6.82;4.18;;;5.60;1.00;;;;;;4928100;29;20047;-72
2021/03/18 11:20:59;;;;;;;6.85;3.67;;;5.60;1.00;;;;;;4939384;29;20058;-74
2021/03/18 11:23:34;;;;;;;8.00;3.97;;;5.80;1.00;;;;;;4931327;29;20052;-73
2021/03/18 11:26:04;;;;;;;6.38;3.40;;;5.90;1.00;;;;;;4940670;29;20044;-73
2021/03/18 11:28:32;;;;;;;5.72;3.65;;;5.60;1.00;;;;;;4930304;29;20130;-73
2021/03/18 11:31:09;;;;;;;5.95;3.78;;;5.60;1.00;;;;;;4938780;29;20138;-73
2021/03/18 11:33:39;;;;;;;6.25;3.88;;;5.50;1.00;;;;;;4938632;29;20487;-73
2021/03/18 11:36:07;;;;;;;9.52;4.28;;;5.80;1.00;;;;;;4939880;29;20108;-74
2021/03/18 11:38:35;;;;;;;5.55;3.72;;;5.80;1.00;;;;;;4932741;29;20142;-76
2021/03/18 11:41:04;;;;;;;7.80;4.90;;;5.90;1.00;;;;;;4941660;29;20048;-72
2021/03/18 11:43:31;;;;;;;6.97;3.45;;;6.10;1.00;;;;;;4946222;29;20055;-74
2021/03/18 11:45:58;;;;;;;5.70;3.67;;;5.90;1.00;;;;;;4946942;29;21394;-74
2021/03/18 11:48:26;;;;;;;6.75;4.22;;;6.20;1.00;;;;;;4938246;29;20054;-75
2021/03/18 11:50:53;;;;;;;5.68;3.70;;;6.30;1.00;;;;;;4947013;29;20055;-74
2021/03/18 11:53:21;;;;;;;9.18;4.07;;;6.40;1.00;;;;;;4941564;29;20470;-76
2021/03/18 11:55:48;;;;;;;8.07;3.80;;;6.50;1.00;;;;;;4945298;29;20050;-76
2021/03/18 11:58:16;;;;;;;6.95;3.55;;;6.80;1.00;;;;;;4939462;29;20070;-75
2021/03/18 12:00:43;;;;;;;9.07;3.95;;;6.90;1.00;;;;;;4946489;29;20051;-75
2021/03/18 12:03:12;;;;;;;6.45;4.25;;;6.40;1.00;;;;;;4947623;29;20054;-74
2021/03/18 12:05:42;;;;;;;5.53;3.30;;;6.50;1.00;;;;;;4944158;29;20695;-75
2021/03/18 12:08:10;;;;;;;8.13;4.63;;;6.60;1.00;;;;;;4938735;29;20058;-76
2021/03/18 12:10:45;;;;;;;7.10;3.83;;;6.50;1.00;;;;;;4945881;29;20540;-75
2021/03/18 12:13:12;;;;;;;5.32;3.63;;;6.80;1.00;;;;;;4945126;28;20068;-75
2021/03/18 12:15:40;;;;;;;5.13;3.53;;;7.00;1.00;;;;;;4946765;29;20050;-74
2021/03/18 12:18:07;;;;;;;5.60;3.58;;;7.30;1.00;;;;;;4933651;29;20105;-77
2021/03/18 12:20:34;;;;;;;6.22;3.60;;;6.70;1.00;;;;;;4942911;29;20477;-79
2021/03/18 12:23:02;;;;;;;8.73;4.13;;;6.10;1.00;;;;;;4942694;29;20048;-74
2021/03/18 12:25:29;;;;;;;7.78;3.92;;;5.80;1.00;;;;;;4943727;29;21296;-74
2021/03/18 12:27:56;;;;;;;5.93;3.60;;;5.80;1.00;;;;;;4942238;29;20058;-76
2021/03/18 12:30:24;;;;;;;9.70;4.13;;;5.40;1.00;;;;;;4939775;29;20501;-74
2021/03/18 12:32:52;;;;;;;7.30;3.83;;;5.50;1.00;;;;;;4942772;29;20054;-77
2021/03/18 12:35:21;;;;;;;5.00;3.63;;;5.30;1.00;;;;;;4939672;29;20048;-76
2021/03/18 12:37:50;;;;;;;7.30;3.50;;;5.00;1.00;;;;;;4939131;28;20501;-75
2021/03/18 12:40:18;;;;;;;5.65;3.40;;;5.10;1.00;;;;;;4943162;29;20384;-74
2021/03/18 12:42:45;;;;;;;6.97;3.50;;;5.20;1.00;;;;;;4941528;29;20047;-74
2021/03/18 12:45:15;;;;;;;7.35;3.38;;;5.30;1.00;;;;;;4944251;28;20064;-74
2021/03/18 12:47:42;;;;;;;6.63;3.15;;;5.40;1.00;;;;;;4943140;29;20062;-74
2021/03/18 12:50:14;;;;;;;3.90;3.03;;;5.40;1.00;;;;;;4939534;29;20094;-75
2021/03/18 12:52:41;;;;;;;4.97;3.85;;;5.60;1.00;;;;;;4943309;29;20522;-73
2021/03/18 12:55:09;;;;;;;10.90;3.55;;;5.00;1.00;;;;;;4946554;28;20541;-73
2021/03/18 12:57:50;;;;;;;5.03;3.10;;;5.40;1.00;;;;;;4937749;29;20047;-73
2021/03/18 13:00:19;;;;;;;6.70;3.70;;;5.30;1.00;;;;;;4938237;29;20062;-75
2021/03/18 13:02:46;;;;;;;9.70;3.40;;;5.00;1.00;;;;;;4948634;29;20559;-73
2021/03/18 13:05:14;;;;;;;7.93;3.92;;;5.00;1.00;;;;;;4940987;29;20578;-74
2021/03/18 13:07:41;;;;;;;8.40;4.35;;;5.50;1.00;;;;;;4942084;29;20062;-74
2021/03/18 13:10:10;;;;;;;9.13;4.22;;;5.10;1.00;;;;;;4937929;29;20073;-74
2021/03/18 13:12:38;;;;;;;6.75;3.80;;;5.40;1.00;;;;;;4948030;29;20061;-74
2021/03/18 13:15:07;;;;;;;7.68;3.83;;;5.60;1.00;;;;;;4940194;29;20052;-74
2021/03/18 13:17:34;;;;;;;9.13;4.60;;;5.60;1.00;;;;;;4943704;28;20151;-74